sensor_id;sensor_type;location;lat;lon;timestamp;P1;durP1;ratioP1;P2;durP2;ratioP2
9904;SDS011;4991;43.566;27.820;2023-08-24T00:00:41;9.60;;;8.67;;
9904;SDS011;4991;43.566;27.820;2023-08-24T00:03:08;8.57;;;7.77;;
9904;SDS011;4991;43.566;27.820;2023-08-24T00:05:34;11.67;;;8.60;;
9904;SDS011;4991;43.566;27.820;2023-08-24T00:08:04;8.93;;;8.07;;
9904;SDS011;4991;43.566;27.820;2023-08-24T00:10:30;9.03;;;8.23;;
9904;SDS011;4991;43.566;27.820;2023-08-24T00:12:56;9.17;;;8.27;;
9904;SDS011;4991;43.566;27.820;2023-08-24T00:15:21;10.67;;;8.20;;
9904;SDS011;4991;43.566;27.820;2023-08-24T00:17:47;8.97;;;8.17;;
9904;SDS011;4991;43.566;27.820;2023-08-24T00:20:12;10.37;;;8.30;;
9904;SDS011;4991;43.566;27.820;2023-08-24T00:22:39;10.00;;;8.57;;
9904;SDS011;4991;43.566;27.820;2023-08-24T00:25:07;9.00;;;8.07;;
9904;SDS011;4991;43.566;27.820;2023-08-24T00:27:34;8.67;;;7.90;;
9904;SDS011;4991;43.566;27.820;2023-08-24T00:30:02;8.97;;;8.07;;
9904;SDS011;4991;43.566;27.820;2023-08-24T00:32:29;9.13;;;8.33;;
9904;SDS011;4991;43.566;27.820;2023-08-24T00:34:59;10.07;;;9.17;;
9904;SDS011;4991;43.566;27.820;2023-08-24T00:37:26;9.57;;;8.70;;
9904;SDS011;4991;43.566;27.820;2023-08-24T00:39:53;9.83;;;8.93;;
9904;SDS011;4991;43.566;27.820;2023-08-24T00:42:18;9.27;;;8.43;;
9904;SDS011;4991;43.566;27.820;2023-08-24T00:44:44;11.20;;;9.43;;
9904;SDS011;4991;43.566;27.820;2023-08-24T00:47:11;9.57;;;8.67;;
9904;SDS011;4991;43.566;27.820;2023-08-24T00:49:37;12.13;;;8.50;;
9904;SDS011;4991;43.566;27.820;2023-08-24T00:52:03;10.80;;;8.70;;
9904;SDS011;4991;43.566;27.820;2023-08-24T00:54:29;10.03;;;8.57;;
9904;SDS011;4991;43.566;27.820;2023-08-24T00:56:55;8.90;;;8.10;;
9904;SDS011;4991;43.566;27.820;2023-08-24T00:59:20;9.13;;;7.90;;
9904;SDS011;4991;43.566;27.820;2023-08-24T01:01:47;11.03;;;8.00;;
9904;SDS011;4991;43.566;27.820;2023-08-24T01:04:13;10.90;;;8.47;;
9904;SDS011;4991;43.566;27.820;2023-08-24T01:06:39;8.77;;;7.97;;
9904;SDS011;4991;43.566;27.820;2023-08-24T01:09:04;8.83;;;8.03;;
9904;SDS011;4991;43.566;27.820;2023-08-24T01:14:15;9.40;;;8.60;;
9904;SDS011;4991;43.566;27.820;2023-08-24T01:16:43;9.40;;;8.40;;
9904;SDS011;4991;43.566;27.820;2023-08-24T01:19:19;9.93;;;8.93;;
9904;SDS011;4991;43.566;27.820;2023-08-24T01:25:01;12.47;;;8.60;;
9904;SDS011;4991;43.566;27.820;2023-08-24T01:27:41;8.87;;;7.97;;
9904;SDS011;4991;43.566;27.820;2023-08-24T01:30:08;10.00;;;8.53;;
9904;SDS011;4991;43.566;27.820;2023-08-24T01:32:35;12.47;;;8.40;;
9904;SDS011;4991;43.566;27.820;2023-08-24T01:35:02;9.20;;;8.30;;
9904;SDS011;4991;43.566;27.820;2023-08-24T01:37:29;9.33;;;8.47;;
9904;SDS011;4991;43.566;27.820;2023-08-24T01:40:15;9.33;;;8.43;;
9904;SDS011;4991;43.566;27.820;2023-08-24T01:43:03;9.70;;;8.80;;
9904;SDS011;4991;43.566;27.820;2023-08-24T01:45:32;9.07;;;8.20;;
9904;SDS011;4991;43.566;27.820;2023-08-24T01:47:59;8.60;;;7.70;;
9904;SDS011;4991;43.566;27.820;2023-08-24T01:50:28;10.03;;;9.13;;
9904;SDS011;4991;43.566;27.820;2023-08-24T01:52:54;9.23;;;7.97;;
9904;SDS011;4991;43.566;27.820;2023-08-24T01:55:20;9.97;;;9.03;;
9904;SDS011;4991;43.566;27.820;2023-08-24T01:57:47;10.13;;;9.13;;
9904;SDS011;4991;43.566;27.820;2023-08-24T02:00:13;10.20;;;9.20;;
9904;SDS011;4991;43.566;27.820;2023-08-24T02:02:39;9.27;;;8.37;;
9904;SDS011;4991;43.566;27.820;2023-08-24T02:05:05;9.63;;;8.73;;
9904;SDS011;4991;43.566;27.820;2023-08-24T02:07:31;9.27;;;8.37;;
9904;SDS011;4991;43.566;27.820;2023-08-24T02:09:56;10.23;;;8.90;;
9904;SDS011;4991;43.566;27.820;2023-08-24T02:12:22;9.53;;;8.60;;
9904;SDS011;4991;43.566;27.820;2023-08-24T02:14:47;9.80;;;8.30;;
9904;SDS011;4991;43.566;27.820;2023-08-24T02:17:13;9.27;;;7.90;;
9904;SDS011;4991;43.566;27.820;2023-08-24T02:19:39;9.83;;;8.77;;
9904;SDS011;4991;43.566;27.820;2023-08-24T02:22:07;9.13;;;8.33;;
9904;SDS011;4991;43.566;27.820;2023-08-24T02:24:33;9.43;;;8.53;;
9904;SDS011;4991;43.566;27.820;2023-08-24T02:26:58;9.47;;;8.37;;
9904;SDS011;4991;43.566;27.820;2023-08-24T02:29:24;13.60;;;9.30;;
9904;SDS011;4991;43.566;27.820;2023-08-24T02:31:50;11.27;;;8.67;;
9904;SDS011;4991;43.566;27.820;2023-08-24T02:34:16;10.00;;;8.80;;
9904;SDS011;4991;43.566;27.820;2023-08-24T02:36:42;11.93;;;8.50;;
9904;SDS011;4991;43.566;27.820;2023-08-24T02:39:07;10.23;;;8.47;;
9904;SDS011;4991;43.566;27.820;2023-08-24T02:41:34;10.77;;;9.67;;
9904;SDS011;4991;43.566;27.820;2023-08-24T02:44:00;11.50;;;8.73;;
9904;SDS011;4991;43.566;27.820;2023-08-24T02:46:26;10.63;;;8.17;;
9904;SDS011;4991;43.566;27.820;2023-08-24T02:48:52;10.90;;;8.30;;
9904;SDS011;4991;43.566;27.820;2023-08-24T02:51:17;11.67;;;8.63;;
9904;SDS011;4991;43.566;27.820;2023-08-24T02:53:43;9.00;;;8.20;;
9904;SDS011;4991;43.566;27.820;2023-08-24T02:56:08;8.97;;;8.17;;
9904;SDS011;4991;43.566;27.820;2023-08-24T02:58:34;8.47;;;7.67;;
9904;SDS011;4991;43.566;27.820;2023-08-24T03:01:03;11.63;;;8.77;;
9904;SDS011;4991;43.566;27.820;2023-08-24T03:03:32;10.00;;;8.57;;
9904;SDS011;4991;43.566;27.820;2023-08-24T03:06:02;14.70;;;9.00;;
9904;SDS011;4991;43.566;27.820;2023-08-24T03:08:32;9.00;;;8.20;;
9904;SDS011;4991;43.566;27.820;2023-08-24T03:10:58;9.70;;;8.70;;
9904;SDS011;4991;43.566;27.820;2023-08-24T03:13:26;9.60;;;8.60;;
9904;SDS011;4991;43.566;27.820;2023-08-24T03:15:52;10.90;;;9.07;;
9904;SDS011;4991;43.566;27.820;2023-08-24T03:18:18;14.70;;;9.17;;
9904;SDS011;4991;43.566;27.820;2023-08-24T03:20:44;13.70;;;11.60;;
9904;SDS011;4991;43.566;27.820;2023-08-24T03:23:12;13.63;;;10.83;;
9904;SDS011;4991;43.566;27.820;2023-08-24T03:25:38;12.07;;;9.93;;
9904;SDS011;4991;43.566;27.820;2023-08-24T03:28:06;13.40;;;9.33;;
9904;SDS011;4991;43.566;27.820;2023-08-24T03:30:33;18.27;;;10.40;;
9904;SDS011;4991;43.566;27.820;2023-08-24T03:33:00;12.40;;;8.80;;
9904;SDS011;4991;43.566;27.820;2023-08-24T03:35:26;13.37;;;9.53;;
9904;SDS011;4991;43.566;27.820;2023-08-24T03:37:52;14.77;;;10.43;;
9904;SDS011;4991;43.566;27.820;2023-08-24T03:40:17;10.50;;;9.40;;
9904;SDS011;4991;43.566;27.820;2023-08-24T03:42:43;15.53;;;10.00;;
9904;SDS011;4991;43.566;27.820;2023-08-24T03:45:08;11.50;;;9.67;;
9904;SDS011;4991;43.566;27.820;2023-08-24T03:47:34;10.77;;;9.67;;
9904;SDS011;4991;43.566;27.820;2023-08-24T03:50:00;13.40;;;10.37;;
9904;SDS011;4991;43.566;27.820;2023-08-24T03:52:26;11.73;;;9.27;;
9904;SDS011;4991;43.566;27.820;2023-08-24T03:54:51;11.07;;;10.03;;
9904;SDS011;4991;43.566;27.820;2023-08-24T03:57:17;11.33;;;10.10;;
9904;SDS011;4991;43.566;27.820;2023-08-24T03:59:42;13.47;;;10.30;;
9904;SDS011;4991;43.566;27.820;2023-08-24T04:02:08;10.20;;;9.13;;
9904;SDS011;4991;43.566;27.820;2023-08-24T04:04:34;9.27;;;8.37;;
9904;SDS011;4991;43.566;27.820;2023-08-24T04:06:59;9.77;;;8.77;;
9904;SDS011;4991;43.566;27.820;2023-08-24T04:09:25;10.87;;;9.17;;
9904;SDS011;4991;43.566;27.820;2023-08-24T04:11:51;11.73;;;9.33;;
9904;SDS011;4991;43.566;27.820;2023-08-24T04:14:16;16.37;;;10.33;;
9904;SDS011;4991;43.566;27.820;2023-08-24T04:16:42;12.77;;;10.57;;
9904;SDS011;4991;43.566;27.820;2023-08-24T04:19:08;18.37;;;10.83;;
9904;SDS011;4991;43.566;27.820;2023-08-24T04:21:34;22.87;;;12.33;;
9904;SDS011;4991;43.566;27.820;2023-08-24T04:23:59;12.23;;;9.40;;
9904;SDS011;4991;43.566;27.820;2023-08-24T04:26:25;15.20;;;10.20;;
9904;SDS011;4991;43.566;27.820;2023-08-24T04:28:51;13.00;;;9.43;;
9904;SDS011;4991;43.566;27.820;2023-08-24T04:31:16;12.20;;;9.63;;
9904;SDS011;4991;43.566;27.820;2023-08-24T04:33:42;10.30;;;8.27;;
9904;SDS011;4991;43.566;27.820;2023-08-24T04:36:08;11.27;;;9.40;;
9904;SDS011;4991;43.566;27.820;2023-08-24T04:38:33;12.50;;;10.30;;
9904;SDS011;4991;43.566;27.820;2023-08-24T04:40:59;10.80;;;9.63;;
9904;SDS011;4991;43.566;27.820;2023-08-24T04:43:25;11.70;;;9.77;;
9904;SDS011;4991;43.566;27.820;2023-08-24T04:45:52;11.60;;;8.87;;
9904;SDS011;4991;43.566;27.820;2023-08-24T04:48:19;9.00;;;8.02;;
9904;SDS011;4991;43.566;27.820;2023-08-24T04:50:45;12.77;;;8.30;;
9904;SDS011;4991;43.566;27.820;2023-08-24T04:53:12;14.73;;;8.75;;
9904;SDS011;4991;43.566;27.820;2023-08-24T04:55:40;14.27;;;8.68;;
9904;SDS011;4991;43.566;27.820;2023-08-24T04:58:07;21.98;;;16.77;;
9904;SDS011;4991;43.566;27.820;2023-08-24T05:00:33;9.20;;;8.30;;
9904;SDS011;4991;43.566;27.820;2023-08-24T05:03:00;12.50;;;8.85;;
9904;SDS011;4991;43.566;27.820;2023-08-24T05:05:28;12.10;;;8.55;;
9904;SDS011;4991;43.566;27.820;2023-08-24T05:07:55;9.32;;;8.35;;
9904;SDS011;4991;43.566;27.820;2023-08-24T05:10:21;9.90;;;8.30;;
9904;SDS011;4991;43.566;27.820;2023-08-24T05:12:47;12.40;;;8.75;;
9904;SDS011;4991;43.566;27.820;2023-08-24T05:15:12;9.98;;;9.05;;
9904;SDS011;4991;43.566;27.820;2023-08-24T05:17:39;10.02;;;8.43;;
9904;SDS011;4991;43.566;27.820;2023-08-24T05:20:06;9.45;;;8.55;;
9904;SDS011;4991;43.566;27.820;2023-08-24T05:22:33;14.88;;;9.75;;
9904;SDS011;4991;43.566;27.820;2023-08-24T05:24:59;13.88;;;9.43;;
9904;SDS011;4991;43.566;27.820;2023-08-24T05:27:25;15.95;;;10.63;;
9904;SDS011;4991;43.566;27.820;2023-08-24T05:29:51;16.85;;;10.13;;
9904;SDS011;4991;43.566;27.820;2023-08-24T05:32:16;12.95;;;9.60;;
9904;SDS011;4991;43.566;27.820;2023-08-24T05:34:42;13.57;;;9.70;;
9904;SDS011;4991;43.566;27.820;2023-08-24T05:37:08;13.85;;;9.02;;
9904;SDS011;4991;43.566;27.820;2023-08-24T05:39:33;12.57;;;9.25;;
9904;SDS011;4991;43.566;27.820;2023-08-24T05:41:59;13.15;;;9.38;;
9904;SDS011;4991;43.566;27.820;2023-08-24T05:44:24;15.20;;;8.52;;
9904;SDS011;4991;43.566;27.820;2023-08-24T05:46:50;16.55;;;8.43;;
9904;SDS011;4991;43.566;27.820;2023-08-24T05:49:16;11.77;;;7.25;;
9904;SDS011;4991;43.566;27.820;2023-08-24T05:51:41;14.55;;;8.40;;
9904;SDS011;4991;43.566;27.820;2023-08-24T05:54:07;12.23;;;7.18;;
9904;SDS011;4991;43.566;27.820;2023-08-24T05:56:32;10.48;;;7.75;;
9904;SDS011;4991;43.566;27.820;2023-08-24T05:58:58;10.43;;;7.07;;
9904;SDS011;4991;43.566;27.820;2023-08-24T06:01:24;10.48;;;7.80;;
9904;SDS011;4991;43.566;27.820;2023-08-24T06:03:50;11.68;;;8.45;;
9904;SDS011;4991;43.566;27.820;2023-08-24T06:06:16;9.93;;;7.55;;
9904;SDS011;4991;43.566;27.820;2023-08-24T06:08:42;12.23;;;7.72;;
9904;SDS011;4991;43.566;27.820;2023-08-24T06:11:07;8.93;;;8.07;;
9904;SDS011;4991;43.566;27.820;2023-08-24T06:13:34;18.80;;;8.13;;
9904;SDS011;4991;43.566;27.820;2023-08-24T06:16:00;13.20;;;8.43;;
9904;SDS011;4991;43.566;27.820;2023-08-24T06:18:27;8.60;;;7.22;;
9904;SDS011;4991;43.566;27.820;2023-08-24T06:20:53;10.00;;;7.97;;
9904;SDS011;4991;43.566;27.820;2023-08-24T06:23:19;11.20;;;7.88;;
9904;SDS011;4991;43.566;27.820;2023-08-24T06:25:46;9.05;;;6.90;;
9904;SDS011;4991;43.566;27.820;2023-08-24T06:28:13;6.82;;;6.18;;
9904;SDS011;4991;43.566;27.820;2023-08-24T06:30:39;7.00;;;6.38;;
9904;SDS011;4991;43.566;27.820;2023-08-24T06:33:06;15.13;;;8.35;;
9904;SDS011;4991;43.566;27.820;2023-08-24T06:35:34;13.82;;;7.63;;
9904;SDS011;4991;43.566;27.820;2023-08-24T06:38:00;9.77;;;6.82;;
9904;SDS011;4991;43.566;27.820;2023-08-24T06:40:26;9.10;;;7.40;;
9904;SDS011;4991;43.566;27.820;2023-08-24T06:42:52;7.10;;;6.45;;
9904;SDS011;4991;43.566;27.820;2023-08-24T06:45:17;7.15;;;6.30;;
9904;SDS011;4991;43.566;27.820;2023-08-24T06:47:44;9.30;;;6.72;;
9904;SDS011;4991;43.566;27.820;2023-08-24T06:50:10;7.50;;;6.80;;
9904;SDS011;4991;43.566;27.820;2023-08-24T06:52:37;8.15;;;7.35;;
9904;SDS011;4991;43.566;27.820;2023-08-24T06:55:05;11.27;;;7.13;;
9904;SDS011;4991;43.566;27.820;2023-08-24T06:57:31;7.57;;;6.72;;
9904;SDS011;4991;43.566;27.820;2023-08-24T06:59:57;8.52;;;7.63;;
9904;SDS011;4991;43.566;27.820;2023-08-24T07:02:23;10.00;;;6.72;;
9904;SDS011;4991;43.566;27.820;2023-08-24T07:04:48;9.10;;;7.20;;
9904;SDS011;4991;43.566;27.820;2023-08-24T07:07:15;8.45;;;7.50;;
9904;SDS011;4991;43.566;27.820;2023-08-24T07:09:42;7.13;;;6.45;;
9904;SDS011;4991;43.566;27.820;2023-08-24T07:12:09;7.38;;;6.68;;
9904;SDS011;4991;43.566;27.820;2023-08-24T07:14:38;7.18;;;6.55;;
9904;SDS011;4991;43.566;27.820;2023-08-24T07:17:06;7.38;;;6.70;;
9904;SDS011;4991;43.566;27.820;2023-08-24T07:19:32;7.88;;;7.07;;
9904;SDS011;4991;43.566;27.820;2023-08-24T07:21:57;7.72;;;7.05;;
9904;SDS011;4991;43.566;27.820;2023-08-24T07:24:23;7.55;;;6.85;;
9904;SDS011;4991;43.566;27.820;2023-08-24T07:26:54;10.27;;;6.47;;
9904;SDS011;4991;43.566;27.820;2023-08-24T07:29:20;7.10;;;6.50;;
9904;SDS011;4991;43.566;27.820;2023-08-24T07:31:46;7.43;;;6.50;;
9904;SDS011;4991;43.566;27.820;2023-08-24T07:34:12;6.93;;;6.30;;
9904;SDS011;4991;43.566;27.820;2023-08-24T07:36:38;7.10;;;6.20;;
9904;SDS011;4991;43.566;27.820;2023-08-24T07:39:04;6.93;;;6.22;;
9904;SDS011;4991;43.566;27.820;2023-08-24T07:41:30;7.82;;;6.22;;
9904;SDS011;4991;43.566;27.820;2023-08-24T07:43:55;7.63;;;6.57;;
9904;SDS011;4991;43.566;27.820;2023-08-24T07:46:21;10.82;;;7.22;;
9904;SDS011;4991;43.566;27.820;2023-08-24T07:48:47;7.53;;;6.70;;
9904;SDS011;4991;43.566;27.820;2023-08-24T07:51:12;7.38;;;6.75;;
9904;SDS011;4991;43.566;27.820;2023-08-24T07:53:38;8.43;;;7.18;;
9904;SDS011;4991;43.566;27.820;2023-08-24T07:56:04;7.38;;;6.13;;
9904;SDS011;4991;43.566;27.820;2023-08-24T07:58:30;9.18;;;6.50;;
9904;SDS011;4991;43.566;27.820;2023-08-24T08:00:58;8.05;;;6.82;;
9904;SDS011;4991;43.566;27.820;2023-08-24T08:03:26;7.38;;;6.68;;
9904;SDS011;4991;43.566;27.820;2023-08-24T08:05:53;9.55;;;7.18;;
9904;SDS011;4991;43.566;27.820;2023-08-24T08:08:20;9.80;;;7.20;;
9904;SDS011;4991;43.566;27.820;2023-08-24T08:10:45;6.60;;;6.10;;
9904;SDS011;4991;43.566;27.820;2023-08-24T08:13:11;8.00;;;6.80;;
9904;SDS011;4991;43.566;27.820;2023-08-24T08:15:36;7.68;;;6.88;;
9904;SDS011;4991;43.566;27.820;2023-08-24T08:18:06;7.28;;;6.57;;
9904;SDS011;4991;43.566;27.820;2023-08-24T08:20:33;7.55;;;6.60;;
9904;SDS011;4991;43.566;27.820;2023-08-24T08:22:58;7.72;;;6.47;;
9904;SDS011;4991;43.566;27.820;2023-08-24T08:25:25;8.10;;;7.32;;
9904;SDS011;4991;43.566;27.820;2023-08-24T08:27:51;7.28;;;6.35;;
9904;SDS011;4991;43.566;27.820;2023-08-24T08:30:17;8.68;;;6.55;;
9904;SDS011;4991;43.566;27.820;2023-08-24T08:32:42;9.10;;;7.43;;
9904;SDS011;4991;43.566;27.820;2023-08-24T08:35:08;7.75;;;7.00;;
9904;SDS011;4991;43.566;27.820;2023-08-24T08:37:35;8.98;;;6.82;;
9904;SDS011;4991;43.566;27.820;2023-08-24T08:40:03;9.05;;;8.02;;
9904;SDS011;4991;43.566;27.820;2023-08-24T08:42:32;9.10;;;8.13;;
9904;SDS011;4991;43.566;27.820;2023-08-24T08:45:00;8.18;;;7.38;;
9904;SDS011;4991;43.566;27.820;2023-08-24T08:47:29;8.07;;;7.00;;
9904;SDS011;4991;43.566;27.820;2023-08-24T08:49:56;7.85;;;6.78;;
9904;SDS011;4991;43.566;27.820;2023-08-24T08:52:22;9.80;;;7.05;;
9904;SDS011;4991;43.566;27.820;2023-08-24T08:54:50;8.15;;;7.18;;
9904;SDS011;4991;43.566;27.820;2023-08-24T08:57:16;8.75;;;7.53;;
9904;SDS011;4991;43.566;27.820;2023-08-24T08:59:44;7.38;;;6.78;;
9904;SDS011;4991;43.566;27.820;2023-08-24T09:02:11;8.18;;;6.93;;
9904;SDS011;4991;43.566;27.820;2023-08-24T09:04:41;8.70;;;7.10;;
9904;SDS011;4991;43.566;27.820;2023-08-24T09:07:10;9.70;;;7.70;;
9904;SDS011;4991;43.566;27.820;2023-08-24T09:09:38;10.57;;;7.85;;
9904;SDS011;4991;43.566;27.820;2023-08-24T09:12:05;11.27;;;7.13;;
9904;SDS011;4991;43.566;27.820;2023-08-24T09:14:31;7.75;;;7.13;;
9904;SDS011;4991;43.566;27.820;2023-08-24T09:16:58;7.57;;;6.88;;
9904;SDS011;4991;43.566;27.820;2023-08-24T09:19:30;7.38;;;6.80;;
9904;SDS011;4991;43.566;27.820;2023-08-24T09:21:56;7.90;;;7.20;;
9904;SDS011;4991;43.566;27.820;2023-08-24T09:24:30;7.45;;;6.85;;
9904;SDS011;4991;43.566;27.820;2023-08-24T09:26:58;9.80;;;7.63;;
9904;SDS011;4991;43.566;27.820;2023-08-24T09:29:24;8.93;;;7.18;;
9904;SDS011;4991;43.566;27.820;2023-08-24T09:31:52;7.32;;;6.63;;
9904;SDS011;4991;43.566;27.820;2023-08-24T09:34:19;7.20;;;6.47;;
9904;SDS011;4991;43.566;27.820;2023-08-24T09:36:46;8.10;;;7.30;;
9904;SDS011;4991;43.566;27.820;2023-08-24T09:39:12;8.13;;;7.22;;
9904;SDS011;4991;43.566;27.820;2023-08-24T09:41:45;9.98;;;7.00;;
9904;SDS011;4991;43.566;27.820;2023-08-24T09:44:18;8.40;;;7.13;;
9904;SDS011;4991;43.566;27.820;2023-08-24T09:46:44;9.88;;;7.00;;
9904;SDS011;4991;43.566;27.820;2023-08-24T09:49:10;11.90;;;6.88;;
9904;SDS011;4991;43.566;27.820;2023-08-24T09:51:37;9.98;;;6.75;;
9904;SDS011;4991;43.566;27.820;2023-08-24T09:54:05;12.18;;;7.55;;
9904;SDS011;4991;43.566;27.820;2023-08-24T09:56:35;11.25;;;6.93;;
9904;SDS011;4991;43.566;27.820;2023-08-24T09:59:13;7.38;;;6.72;;
9904;SDS011;4991;43.566;27.820;2023-08-24T10:01:46;11.27;;;7.68;;
9904;SDS011;4991;43.566;27.820;2023-08-24T10:04:23;8.65;;;6.43;;
9904;SDS011;4991;43.566;27.820;2023-08-24T10:06:55;10.13;;;8.35;;
9904;SDS011;4991;43.566;27.820;2023-08-24T10:09:31;8.82;;;7.35;;
9904;SDS011;4991;43.566;27.820;2023-08-24T10:12:02;8.70;;;6.78;;
9904;SDS011;4991;43.566;27.820;2023-08-24T10:14:47;10.70;;;6.68;;
9904;SDS011;4991;43.566;27.820;2023-08-24T10:17:31;7.32;;;6.63;;
9904;SDS011;4991;43.566;27.820;2023-08-24T10:19:59;8.95;;;7.88;;
9904;SDS011;4991;43.566;27.820;2023-08-24T10:22:34;9.57;;;7.82;;
9904;SDS011;4991;43.566;27.820;2023-08-24T10:25:02;8.52;;;7.72;;
9904;SDS011;4991;43.566;27.820;2023-08-24T10:27:32;12.90;;;8.32;;
9904;SDS011;4991;43.566;27.820;2023-08-24T10:29:57;14.15;;;7.97;;
9904;SDS011;4991;43.566;27.820;2023-08-24T10:32:24;13.23;;;9.05;;
9904;SDS011;4991;43.566;27.820;2023-08-24T10:34:51;16.13;;;10.68;;
9904;SDS011;4991;43.566;27.820;2023-08-24T10:37:22;0.32;;;0.32;;
9904;SDS011;4991;43.566;27.820;2023-08-24T10:39:50;0.73;;;0.73;;
9904;SDS011;4991;43.566;27.820;2023-08-24T10:42:16;0.40;;;0.40;;
9904;SDS011;4991;43.566;27.820;2023-08-24T10:44:46;0.40;;;0.40;;
9904;SDS011;4991;43.566;27.820;2023-08-24T10:47:20;0.43;;;0.43;;
9904;SDS011;4991;43.566;27.820;2023-08-24T10:52:31;0.40;;;0.40;;
9904;SDS011;4991;43.566;27.820;2023-08-24T10:55:01;0.30;;;0.30;;
9904;SDS011;4991;43.566;27.820;2023-08-24T10:57:34;0.40;;;0.40;;
9904;SDS011;4991;43.566;27.820;2023-08-24T11:00:06;0.40;;;0.40;;
9904;SDS011;4991;43.566;27.820;2023-08-24T11:02:43;0.40;;;0.40;;
9904;SDS011;4991;43.566;27.820;2023-08-24T11:08:00;0.40;;;0.40;;
9904;SDS011;4991;43.566;27.820;2023-08-24T11:13:15;0.40;;;0.40;;
9904;SDS011;4991;43.566;27.820;2023-08-24T11:15:48;0.40;;;0.40;;
9904;SDS011;4991;43.566;27.820;2023-08-24T11:18:23;0.57;;;0.57;;
9904;SDS011;4991;43.566;27.820;2023-08-24T11:20:56;0.30;;;0.30;;
9904;SDS011;4991;43.566;27.820;2023-08-24T11:23:27;0.30;;;0.30;;
9904;SDS011;4991;43.566;27.820;2023-08-24T11:25:54;0.40;;;0.40;;
9904;SDS011;4991;43.566;27.820;2023-08-24T11:28:24;0.75;;;0.75;;
9904;SDS011;4991;43.566;27.820;2023-08-24T11:30:52;0.40;;;0.40;;
9904;SDS011;4991;43.566;27.820;2023-08-24T11:33:33;0.30;;;0.30;;
9904;SDS011;4991;43.566;27.820;2023-08-24T11:36:02;0.30;;;0.30;;
9904;SDS011;4991;43.566;27.820;2023-08-24T11:38:36;0.40;;;0.40;;
9904;SDS011;4991;43.566;27.820;2023-08-24T11:41:17;0.40;;;0.40;;
9904;SDS011;4991;43.566;27.820;2023-08-24T11:43:45;0.40;;;0.40;;
9904;SDS011;4991;43.566;27.820;2023-08-24T11:46:13;0.40;;;0.40;;
9904;SDS011;4991;43.566;27.820;2023-08-24T11:48:41;0.75;;;0.75;;
9904;SDS011;4991;43.566;27.820;2023-08-24T11:51:09;0.40;;;0.40;;
9904;SDS011;4991;43.566;27.820;2023-08-24T11:53:44;0.50;;;0.50;;
9904;SDS011;4991;43.566;27.820;2023-08-24T11:56:13;0.40;;;0.40;;
9904;SDS011;4991;43.566;27.820;2023-08-24T11:58:40;0.40;;;0.40;;
9904;SDS011;4991;43.566;27.820;2023-08-24T12:01:06;0.38;;;0.38;;
9904;SDS011;4991;43.566;27.820;2023-08-24T12:03:33;0.40;;;0.40;;
9904;SDS011;4991;43.566;27.820;2023-08-24T12:06:00;0.40;;;0.40;;
9904;SDS011;4991;43.566;27.820;2023-08-24T12:08:26;0.38;;;0.38;;
9904;SDS011;4991;43.566;27.820;2023-08-24T12:10:52;0.40;;;0.40;;
9904;SDS011;4991;43.566;27.820;2023-08-24T12:13:18;0.38;;;0.38;;
9904;SDS011;4991;43.566;27.820;2023-08-24T12:15:46;4.15;;;3.80;;
9904;SDS011;4991;43.566;27.820;2023-08-24T12:18:13;9.75;;;8.00;;
9904;SDS011;4991;43.566;27.820;2023-08-24T12:20:42;9.77;;;8.88;;
9904;SDS011;4991;43.566;27.820;2023-08-24T12:23:09;9.00;;;7.72;;
9904;SDS011;4991;43.566;27.820;2023-08-24T12:25:37;8.48;;;7.72;;
9904;SDS011;4991;43.566;27.820;2023-08-24T12:28:16;7.55;;;6.55;;
9904;SDS011;4991;43.566;27.820;2023-08-24T12:30:47;8.18;;;7.45;;
9904;SDS011;4991;43.566;27.820;2023-08-24T12:33:24;9.90;;;7.75;;
9904;SDS011;4991;43.566;27.820;2023-08-24T12:35:51;8.20;;;7.40;;
9904;SDS011;4991;43.566;27.820;2023-08-24T12:38:17;8.40;;;7.55;;
9904;SDS011;4991;43.566;27.820;2023-08-24T12:40:43;11.85;;;8.68;;
9904;SDS011;4991;43.566;27.820;2023-08-24T12:43:10;12.98;;;9.93;;
9904;SDS011;4991;43.566;27.820;2023-08-24T12:45:36;9.40;;;8.55;;
9904;SDS011;4991;43.566;27.820;2023-08-24T12:48:05;11.38;;;9.45;;
9904;SDS011;4991;43.566;27.820;2023-08-24T12:50:32;9.60;;;8.07;;
9904;SDS011;4991;43.566;27.820;2023-08-24T12:52:58;10.20;;;8.57;;
9904;SDS011;4991;43.566;27.820;2023-08-24T12:55:28;8.40;;;7.60;;
9904;SDS011;4991;43.566;27.820;2023-08-24T12:57:54;11.98;;;7.90;;
9904;SDS011;4991;43.566;27.820;2023-08-24T13:00:21;10.65;;;7.90;;
9904;SDS011;4991;43.566;27.820;2023-08-24T13:02:48;8.70;;;7.53;;
9904;SDS011;4991;43.566;27.820;2023-08-24T13:05:14;8.73;;;7.82;;
9904;SDS011;4991;43.566;27.820;2023-08-24T13:07:40;7.82;;;7.03;;
9904;SDS011;4991;43.566;27.820;2023-08-24T13:10:05;9.25;;;6.97;;
9904;SDS011;4991;43.566;27.820;2023-08-24T13:12:32;7.57;;;6.90;;
9904;SDS011;4991;43.566;27.820;2023-08-24T13:14:58;9.90;;;7.35;;
9904;SDS011;4991;43.566;27.820;2023-08-24T13:17:23;8.45;;;7.28;;
9904;SDS011;4991;43.566;27.820;2023-08-24T13:19:49;9.13;;;7.03;;
9904;SDS011;4991;43.566;27.820;2023-08-24T13:22:15;8.73;;;6.70;;
9904;SDS011;4991;43.566;27.820;2023-08-24T13:24:41;7.72;;;6.93;;
9904;SDS011;4991;43.566;27.820;2023-08-24T13:27:09;8.70;;;7.07;;
9904;SDS011;4991;43.566;27.820;2023-08-24T13:29:40;11.45;;;7.20;;
9904;SDS011;4991;43.566;27.820;2023-08-24T13:32:06;9.20;;;7.78;;
9904;SDS011;4991;43.566;27.820;2023-08-24T13:34:31;7.07;;;6.38;;
9904;SDS011;4991;43.566;27.820;2023-08-24T13:36:58;9.95;;;6.88;;
9904;SDS011;4991;43.566;27.820;2023-08-24T13:39:27;7.82;;;6.65;;
9904;SDS011;4991;43.566;27.820;2023-08-24T13:41:55;13.35;;;7.13;;
9904;SDS011;4991;43.566;27.820;2023-08-24T13:44:22;7.45;;;6.47;;
9904;SDS011;4991;43.566;27.820;2023-08-24T13:46:48;7.30;;;6.18;;
9904;SDS011;4991;43.566;27.820;2023-08-24T13:49:14;7.68;;;6.50;;
9904;SDS011;4991;43.566;27.820;2023-08-24T13:51:39;7.13;;;6.43;;
9904;SDS011;4991;43.566;27.820;2023-08-24T13:54:17;8.95;;;6.15;;
9904;SDS011;4991;43.566;27.820;2023-08-24T13:56:44;9.98;;;6.57;;
9904;SDS011;4991;43.566;27.820;2023-08-24T13:59:10;8.98;;;6.30;;
9904;SDS011;4991;43.566;27.820;2023-08-24T14:01:39;7.45;;;6.65;;
9904;SDS011;4991;43.566;27.820;2023-08-24T14:04:05;8.20;;;7.38;;
9904;SDS011;4991;43.566;27.820;2023-08-24T14:06:31;13.45;;;10.50;;
9904;SDS011;4991;43.566;27.820;2023-08-24T14:09:00;9.15;;;8.25;;
9904;SDS011;4991;43.566;27.820;2023-08-24T14:11:27;10.90;;;9.35;;
9904;SDS011;4991;43.566;27.820;2023-08-24T14:13:53;8.32;;;7.10;;
9904;SDS011;4991;43.566;27.820;2023-08-24T14:16:19;8.68;;;6.00;;
9904;SDS011;4991;43.566;27.820;2023-08-24T14:18:46;10.35;;;9.35;;
9904;SDS011;4991;43.566;27.820;2023-08-24T14:21:13;8.20;;;6.95;;
9904;SDS011;4991;43.566;27.820;2023-08-24T14:23:39;10.40;;;6.53;;
9904;SDS011;4991;43.566;27.820;2023-08-24T14:26:06;16.42;;;12.02;;
9904;SDS011;4991;43.566;27.820;2023-08-24T14:28:54;13.95;;;8.73;;
9904;SDS011;4991;43.566;27.820;2023-08-24T14:31:22;12.75;;;8.82;;
9904;SDS011;4991;43.566;27.820;2023-08-24T14:33:54;8.93;;;6.25;;
9904;SDS011;4991;43.566;27.820;2023-08-24T14:36:22;8.48;;;7.05;;
9904;SDS011;4991;43.566;27.820;2023-08-24T14:38:49;10.55;;;7.22;;
9904;SDS011;4991;43.566;27.820;2023-08-24T14:41:15;11.38;;;7.10;;
9904;SDS011;4991;43.566;27.820;2023-08-24T14:43:43;13.45;;;8.25;;
9904;SDS011;4991;43.566;27.820;2023-08-24T14:46:09;12.55;;;8.52;;
9904;SDS011;4991;43.566;27.820;2023-08-24T14:48:34;8.18;;;6.97;;
9904;SDS011;4991;43.566;27.820;2023-08-24T14:51:00;10.40;;;7.35;;
9904;SDS011;4991;43.566;27.820;2023-08-24T14:53:28;12.85;;;7.82;;
9904;SDS011;4991;43.566;27.820;2023-08-24T14:55:57;9.70;;;6.72;;
9904;SDS011;4991;43.566;27.820;2023-08-24T14:58:23;7.65;;;6.82;;
9904;SDS011;4991;43.566;27.820;2023-08-24T15:00:51;9.18;;;6.43;;
9904;SDS011;4991;43.566;27.820;2023-08-24T15:03:18;9.13;;;6.22;;
9904;SDS011;4991;43.566;27.820;2023-08-24T15:05:45;7.07;;;5.78;;
9904;SDS011;4991;43.566;27.820;2023-08-24T15:08:21;7.03;;;6.32;;
9904;SDS011;4991;43.566;27.820;2023-08-24T15:10:48;6.80;;;6.25;;